sensor_id;sensor_type;location;lat;lon;timestamp;temperature;humidity
30150;DHT22;16962;48.646;9.026;2023-11-19T00:02:34;6.90;99.90
30150;DHT22;16962;48.646;9.026;2023-11-19T00:05:21;6.90;99.90
30150;DHT22;16962;48.646;9.026;2023-11-19T00:08:08;7.00;99.90
30150;DHT22;16962;48.646;9.026;2023-11-19T00:10:56;7.00;99.90
30150;DHT22;16962;48.646;9.026;2023-11-19T00:13:43;7.00;99.90
30150;DHT22;16962;48.646;9.026;2023-11-19T00:16:31;7.00;99.90
30150;DHT22;16962;48.646;9.026;2023-11-19T00:19:19;7.00;99.90
30150;DHT22;16962;48.646;9.026;2023-11-19T00:22:06;7.10;99.90
30150;DHT22;16962;48.646;9.026;2023-11-19T00:24:56;7.10;99.90
30150;DHT22;16962;48.646;9.026;2023-11-19T00:27:43;7.10;99.90
30150;DHT22;16962;48.646;9.026;2023-11-19T00:30:36;7.10;99.90
30150;DHT22;16962;48.646;9.026;2023-11-19T00:33:25;7.20;99.90
30150;DHT22;16962;48.646;9.026;2023-11-19T00:36:13;7.20;99.90
30150;DHT22;16962;48.646;9.026;2023-11-19T00:39:03;7.30;99.90
30150;DHT22;16962;48.646;9.026;2023-11-19T00:41:50;7.30;99.90
30150;DHT22;16962;48.646;9.026;2023-11-19T00:44:37;7.40;99.90
30150;DHT22;16962;48.646;9.026;2023-11-19T00:47:25;7.50;99.90
30150;DHT22;16962;48.646;9.026;2023-11-19T00:50:12;7.50;99.90
30150;DHT22;16962;48.646;9.026;2023-11-19T00:53:00;7.60;99.90
30150;DHT22;16962;48.646;9.026;2023-11-19T00:55:48;7.70;99.90
30150;DHT22;16962;48.646;9.026;2023-11-19T00:58:38;7.70;99.90
30150;DHT22;16962;48.646;9.026;2023-11-19T01:01:28;7.70;99.90
30150;DHT22;16962;48.646;9.026;2023-11-19T01:04:15;7.80;99.90
30150;DHT22;16962;48.646;9.026;2023-11-19T01:07:03;7.80;99.90
30150;DHT22;16962;48.646;9.026;2023-11-19T01:09:51;7.80;99.90
30150;DHT22;16962;48.646;9.026;2023-11-19T01:12:39;7.80;99.90
30150;DHT22;16962;48.646;9.026;2023-11-19T01:15:26;7.90;99.90
30150;DHT22;16962;48.646;9.026;2023-11-19T01:18:16;7.90;99.90
30150;DHT22;16962;48.646;9.026;2023-11-19T01:21:04;7.90;99.90
30150;DHT22;16962;48.646;9.026;2023-11-19T01:23:55;8.00;99.90
30150;DHT22;16962;48.646;9.026;2023-11-19T01:26:43;8.00;99.90
30150;DHT22;16962;48.646;9.026;2023-11-19T01:29:32;8.00;99.90
30150;DHT22;16962;48.646;9.026;2023-11-19T01:32:22;8.00;99.90
30150;DHT22;16962;48.646;9.026;2023-11-19T01:35:11;8.00;99.90
30150;DHT22;16962;48.646;9.026;2023-11-19T01:37:58;8.00;99.90
30150;DHT22;16962;48.646;9.026;2023-11-19T01:40:48;8.10;99.90
30150;DHT22;16962;48.646;9.026;2023-11-19T01:43:39;8.10;99.90
30150;DHT22;16962;48.646;9.026;2023-11-19T01:46:29;8.10;99.90
30150;DHT22;16962;48.646;9.026;2023-11-19T01:49:18;8.20;99.90
30150;DHT22;16962;48.646;9.026;2023-11-19T01:52:05;8.20;99.90
30150;DHT22;16962;48.646;9.026;2023-11-19T01:54:53;8.30;99.90
30150;DHT22;16962;48.646;9.026;2023-11-19T01:57:41;8.30;99.90
30150;DHT22;16962;48.646;9.026;2023-11-19T02:00:28;8.30;99.90
30150;DHT22;16962;48.646;9.026;2023-11-19T02:03:19;8.30;99.90
30150;DHT22;16962;48.646;9.026;2023-11-19T02:06:07;8.40;99.90
30150;DHT22;16962;48.646;9.026;2023-11-19T02:08:57;8.40;99.90
30150;DHT22;16962;48.646;9.026;2023-11-19T02:11:44;8.40;99.90
30150;DHT22;16962;48.646;9.026;2023-11-19T02:14:31;8.50;99.90
30150;DHT22;16962;48.646;9.026;2023-11-19T02:17:30;8.50;99.90
30150;DHT22;16962;48.646;9.026;2023-11-19T02:20:21;8.50;99.90
30150;DHT22;16962;48.646;9.026;2023-11-19T02:23:12;8.50;99.90
30150;DHT22;16962;48.646;9.026;2023-11-19T02:28:56;8.60;99.90
30150;DHT22;16962;48.646;9.026;2023-11-19T02:31:43;8.60;99.90
30150;DHT22;16962;48.646;9.026;2023-11-19T02:34:30;8.70;99.90
30150;DHT22;16962;48.646;9.026;2023-11-19T02:37:18;8.70;99.90
30150;DHT22;16962;48.646;9.026;2023-11-19T02:40:06;8.80;99.90
30150;DHT22;16962;48.646;9.026;2023-11-19T02:42:56;8.80;99.90
30150;DHT22;16962;48.646;9.026;2023-11-19T02:45:43;8.80;99.90
30150;DHT22;16962;48.646;9.026;2023-11-19T02:48:33;8.90;99.90
30150;DHT22;16962;48.646;9.026;2023-11-19T02:51:22;9.00;99.90
30150;DHT22;16962;48.646;9.026;2023-11-19T02:54:12;9.00;99.90
30150;DHT22;16962;48.646;9.026;2023-11-19T02:56:59;9.10;99.90
30150;DHT22;16962;48.646;9.026;2023-11-19T02:59:48;9.10;99.90
30150;DHT22;16962;48.646;9.026;2023-11-19T03:02:41;9.10;99.90
30150;DHT22;16962;48.646;9.026;2023-11-19T03:05:35;9.10;99.90
30150;DHT22;16962;48.646;9.026;2023-11-19T03:08:22;9.20;99.90
30150;DHT22;16962;48.646;9.026;2023-11-19T03:11:10;9.20;99.90
30150;DHT22;16962;48.646;9.026;2023-11-19T03:13:57;9.20;99.90
30150;DHT22;16962;48.646;9.026;2023-11-19T03:16:46;9.20;99.90
30150;DHT22;16962;48.646;9.026;2023-11-19T03:19:34;9.20;99.90
30150;DHT22;16962;48.646;9.026;2023-11-19T03:22:21;9.20;99.90
30150;DHT22;16962;48.646;9.026;2023-11-19T03:25:08;9.20;99.90
30150;DHT22;16962;48.646;9.026;2023-11-19T03:27:56;9.20;99.90
30150;DHT22;16962;48.646;9.026;2023-11-19T03:30:45;9.20;99.90
30150;DHT22;16962;48.646;9.026;2023-11-19T03:33:35;9.20;99.90
30150;DHT22;16962;48.646;9.026;2023-11-19T03:36:25;9.20;99.90
30150;DHT22;16962;48.646;9.026;2023-11-19T03:39:14;9.20;99.90
30150;DHT22;16962;48.646;9.026;2023-11-19T03:42:02;9.30;99.90
30150;DHT22;16962;48.646;9.026;2023-11-19T03:44:52;9.30;99.90
30150;DHT22;16962;48.646;9.026;2023-11-19T03:47:39;9.30;99.90
30150;DHT22;16962;48.646;9.026;2023-11-19T03:50:27;9.30;99.90
30150;DHT22;16962;48.646;9.026;2023-11-19T03:53:14;9.30;99.90
30150;DHT22;16962;48.646;9.026;2023-11-19T03:56:07;9.30;99.90
30150;DHT22;16962;48.646;9.026;2023-11-19T03:59:00;9.30;99.90
30150;DHT22;16962;48.646;9.026;2023-11-19T04:01:48;9.30;99.90
30150;DHT22;16962;48.646;9.026;2023-11-19T04:04:35;9.30;99.90
30150;DHT22;16962;48.646;9.026;2023-11-19T04:07:23;9.30;99.90
30150;DHT22;16962;48.646;9.026;2023-11-19T04:10:10;9.30;99.90
30150;DHT22;16962;48.646;9.026;2023-11-19T04:12:57;9.30;99.90
30150;DHT22;16962;48.646;9.026;2023-11-19T04:15:45;9.30;99.90
30150;DHT22;16962;48.646;9.026;2023-11-19T04:18:37;9.30;99.90
30150;DHT22;16962;48.646;9.026;2023-11-19T04:21:27;9.40;99.90
30150;DHT22;16962;48.646;9.026;2023-11-19T04:24:17;9.40;99.90
30150;DHT22;16962;48.646;9.026;2023-11-19T04:27:05;9.40;99.90
30150;DHT22;16962;48.646;9.026;2023-11-19T04:29:54;9.40;99.90
30150;DHT22;16962;48.646;9.026;2023-11-19T04:32:43;9.40;99.90
30150;DHT22;16962;48.646;9.026;2023-11-19T04:35:31;9.40;99.90
30150;DHT22;16962;48.646;9.026;2023-11-19T04:38:22;9.40;99.90
30150;DHT22;16962;48.646;9.026;2023-11-19T04:41:09;9.40;99.90
30150;DHT22;16962;48.646;9.026;2023-11-19T04:43:59;9.40;99.90
30150;DHT22;16962;48.646;9.026;2023-11-19T04:46:46;9.40;99.90
30150;DHT22;16962;48.646;9.026;2023-11-19T04:49:40;9.40;99.90
30150;DHT22;16962;48.646;9.026;2023-11-19T04:52:32;9.40;99.90
30150;DHT22;16962;48.646;9.026;2023-11-19T04:55:21;9.50;99.90
30150;DHT22;16962;48.646;9.026;2023-11-19T04:58:09;9.50;99.90
30150;DHT22;16962;48.646;9.026;2023-11-19T05:01:04;9.50;99.90
30150;DHT22;16962;48.646;9.026;2023-11-19T05:03:51;9.50;99.90
30150;DHT22;16962;48.646;9.026;2023-11-19T05:06:41;9.50;99.90
30150;DHT22;16962;48.646;9.026;2023-11-19T05:09:29;9.50;99.90
30150;DHT22;16962;48.646;9.026;2023-11-19T05:12:17;9.50;99.90
30150;DHT22;16962;48.646;9.026;2023-11-19T05:15:05;9.50;99.90
30150;DHT22;16962;48.646;9.026;2023-11-19T05:17:54;9.50;99.90
30150;DHT22;16962;48.646;9.026;2023-11-19T05:20:45;9.50;99.90
30150;DHT22;16962;48.646;9.026;2023-11-19T05:23:33;9.50;99.90
30150;DHT22;16962;48.646;9.026;2023-11-19T05:26:24;9.50;99.90
30150;DHT22;16962;48.646;9.026;2023-11-19T05:29:14;9.50;99.90
30150;DHT22;16962;48.646;9.026;2023-11-19T05:32:06;9.60;99.90
30150;DHT22;16962;48.646;9.026;2023-11-19T05:34:54;9.60;99.90
30150;DHT22;16962;48.646;9.026;2023-11-19T05:37:42;9.60;99.90
30150;DHT22;16962;48.646;9.026;2023-11-19T05:40:35;9.60;99.90
30150;DHT22;16962;48.646;9.026;2023-11-19T05:43:24;9.60;99.90
30150;DHT22;16962;48.646;9.026;2023-11-19T05:46:12;9.60;99.90
30150;DHT22;16962;48.646;9.026;2023-11-19T05:49:03;9.60;99.90
30150;DHT22;16962;48.646;9.026;2023-11-19T05:51:53;9.60;99.90
30150;DHT22;16962;48.646;9.026;2023-11-19T05:54:45;9.60;99.90
30150;DHT22;16962;48.646;9.026;2023-11-19T05:57:39;9.60;99.90
30150;DHT22;16962;48.646;9.026;2023-11-19T06:00:34;9.60;99.90
30150;DHT22;16962;48.646;9.026;2023-11-19T06:03:24;9.70;99.90
30150;DHT22;16962;48.646;9.026;2023-11-19T06:06:12;9.70;99.90
30150;DHT22;16962;48.646;9.026;2023-11-19T06:09:00;9.70;99.90
30150;DHT22;16962;48.646;9.026;2023-11-19T06:12:02;9.70;99.90
30150;DHT22;16962;48.646;9.026;2023-11-19T06:14:49;9.80;99.90
30150;DHT22;16962;48.646;9.026;2023-11-19T06:17:39;9.80;99.90
30150;DHT22;16962;48.646;9.026;2023-11-19T06:20:26;9.80;99.90
30150;DHT22;16962;48.646;9.026;2023-11-19T06:23:29;9.80;99.90
30150;DHT22;16962;48.646;9.026;2023-11-19T06:26:16;9.80;99.90
30150;DHT22;16962;48.646;9.026;2023-11-19T06:29:06;9.70;99.90
30150;DHT22;16962;48.646;9.026;2023-11-19T06:31:55;9.80;99.90
30150;DHT22;16962;48.646;9.026;2023-11-19T06:34:42;9.80;99.90
30150;DHT22;16962;48.646;9.026;2023-11-19T06:37:32;9.70;99.90
30150;DHT22;16962;48.646;9.026;2023-11-19T06:40:19;9.80;99.90
30150;DHT22;16962;48.646;9.026;2023-11-19T06:43:10;9.70;99.90
30150;DHT22;16962;48.646;9.026;2023-11-19T06:45:57;9.70;99.90
30150;DHT22;16962;48.646;9.026;2023-11-19T06:48:45;9.80;99.90
30150;DHT22;16962;48.646;9.026;2023-11-19T06:51:34;9.70;99.90
30150;DHT22;16962;48.646;9.026;2023-11-19T06:54:24;9.80;99.90
30150;DHT22;16962;48.646;9.026;2023-11-19T06:57:12;9.80;99.90
30150;DHT22;16962;48.646;9.026;2023-11-19T07:00:02;9.80;99.90
30150;DHT22;16962;48.646;9.026;2023-11-19T07:02:55;9.90;99.90
30150;DHT22;16962;48.646;9.026;2023-11-19T07:05:42;9.90;99.90
30150;DHT22;16962;48.646;9.026;2023-11-19T07:08:34;9.90;99.90
30150;DHT22;16962;48.646;9.026;2023-11-19T07:11:21;9.90;99.90
30150;DHT22;16962;48.646;9.026;2023-11-19T07:14:08;9.90;99.90
30150;DHT22;16962;48.646;9.026;2023-11-19T07:16:58;9.80;99.90
30150;DHT22;16962;48.646;9.026;2023-11-19T07:19:50;9.90;99.90
30150;DHT22;16962;48.646;9.026;2023-11-19T07:22:39;9.90;99.90
30150;DHT22;16962;48.646;9.026;2023-11-19T07:25:27;10.00;99.90
30150;DHT22;16962;48.646;9.026;2023-11-19T07:28:17;10.00;99.90
30150;DHT22;16962;48.646;9.026;2023-11-19T07:31:04;10.10;99.90
30150;DHT22;16962;48.646;9.026;2023-11-19T07:33:52;10.10;99.90
30150;DHT22;16962;48.646;9.026;2023-11-19T07:36:39;10.20;99.90
30150;DHT22;16962;48.646;9.026;2023-11-19T07:39:29;10.20;99.90
30150;DHT22;16962;48.646;9.026;2023-11-19T07:42:16;10.20;99.90
30150;DHT22;16962;48.646;9.026;2023-11-19T07:45:04;10.20;99.90
30150;DHT22;16962;48.646;9.026;2023-11-19T07:47:52;10.20;99.90
30150;DHT22;16962;48.646;9.026;2023-11-19T07:50:46;10.30;99.90
30150;DHT22;16962;48.646;9.026;2023-11-19T07:53:37;10.30;99.90
30150;DHT22;16962;48.646;9.026;2023-11-19T07:56:27;10.30;99.90
30150;DHT22;16962;48.646;9.026;2023-11-19T07:59:15;10.30;99.90
30150;DHT22;16962;48.646;9.026;2023-11-19T08:02:03;10.30;99.90
30150;DHT22;16962;48.646;9.026;2023-11-19T08:04:55;10.30;99.90
30150;DHT22;16962;48.646;9.026;2023-11-19T08:07:42;10.30;99.90
30150;DHT22;16962;48.646;9.026;2023-11-19T08:10:32;10.40;99.90
30150;DHT22;16962;48.646;9.026;2023-11-19T08:13:20;10.40;99.90
30150;DHT22;16962;48.646;9.026;2023-11-19T08:16:10;10.50;99.90
30150;DHT22;16962;48.646;9.026;2023-11-19T08:18:58;10.50;99.90
30150;DHT22;16962;48.646;9.026;2023-11-19T08:21:48;10.50;99.90
30150;DHT22;16962;48.646;9.026;2023-11-19T08:24:35;10.60;99.90
30150;DHT22;16962;48.646;9.026;2023-11-19T08:27:23;10.60;99.90
30150;DHT22;16962;48.646;9.026;2023-11-19T08:30:14;10.70;99.90
30150;DHT22;16962;48.646;9.026;2023-11-19T08:33:01;10.70;99.90
30150;DHT22;16962;48.646;9.026;2023-11-19T08:35:54;10.70;99.90
30150;DHT22;16962;48.646;9.026;2023-11-19T08:38:42;10.80;99.90
30150;DHT22;16962;48.646;9.026;2023-11-19T08:41:29;11.10;99.90
30150;DHT22;16962;48.646;9.026;2023-11-19T08:44:17;11.40;99.90
30150;DHT22;16962;48.646;9.026;2023-11-19T08:47:06;11.70;99.90
30150;DHT22;16962;48.646;9.026;2023-11-19T08:49:56;12.00;99.90
30150;DHT22;16962;48.646;9.026;2023-11-19T08:52:51;12.10;99.90
30150;DHT22;16962;48.646;9.026;2023-11-19T08:55:39;12.40;99.90
30150;DHT22;16962;48.646;9.026;2023-11-19T08:58:30;12.30;99.90
30150;DHT22;16962;48.646;9.026;2023-11-19T09:01:21;12.10;99.90
30150;DHT22;16962;48.646;9.026;2023-11-19T09:04:09;11.90;99.90
30150;DHT22;16962;48.646;9.026;2023-11-19T09:06:57;12.00;99.90
30150;DHT22;16962;48.646;9.026;2023-11-19T09:09:45;12.30;99.90
30150;DHT22;16962;48.646;9.026;2023-11-19T09:12:34;12.80;99.90
30150;DHT22;16962;48.646;9.026;2023-11-19T09:15:24;12.90;99.90
30150;DHT22;16962;48.646;9.026;2023-11-19T09:35:24;12.50;99.90
30150;DHT22;16962;48.646;9.026;2023-11-19T10:04:58;14.20;27.80
30150;DHT22;16962;48.646;9.026;2023-11-19T10:07:49;13.60;99.90
30150;DHT22;16962;48.646;9.026;2023-11-19T10:10:39;13.60;99.90
30150;DHT22;16962;48.646;9.026;2023-11-19T10:13:28;14.20;99.90
30150;DHT22;16962;48.646;9.026;2023-11-19T10:16:18;13.80;25.10
30150;DHT22;16962;48.646;9.026;2023-11-19T10:19:05;13.70;98.00
30150;DHT22;16962;48.646;9.026;2023-11-19T10:21:53;13.40;1.00
30150;DHT22;16962;48.646;9.026;2023-11-19T10:24:40;13.30;99.90
30150;DHT22;16962;48.646;9.026;2023-11-19T10:27:35;13.30;1.00
30150;DHT22;16962;48.646;9.026;2023-11-19T10:30:24;13.60;99.90
30150;DHT22;16962;48.646;9.026;2023-11-19T10:33:14;13.40;4.40
30150;DHT22;16962;48.646;9.026;2023-11-19T10:36:07;13.30;3.30
30150;DHT22;16962;48.646;9.026;2023-11-19T10:38:56;13.20;1.00
30150;DHT22;16962;48.646;9.026;2023-11-19T10:41:46;13.50;1.00
30150;DHT22;16962;48.646;9.026;2023-11-19T10:44:36;14.50;99.90
30150;DHT22;16962;48.646;9.026;2023-11-19T10:47:28;16.00;1.00
30150;DHT22;16962;48.646;9.026;2023-11-19T10:50:23;17.20;99.90
30150;DHT22;16962;48.646;9.026;2023-11-19T10:53:13;17.00;99.90
30150;DHT22;16962;48.646;9.026;2023-11-19T10:56:09;16.40;99.90
30150;DHT22;16962;48.646;9.026;2023-11-19T10:58:59;15.70;99.90
30150;DHT22;16962;48.646;9.026;2023-11-19T11:02:10;16.10;99.90
30150;DHT22;16962;48.646;9.026;2023-11-19T11:05:05;15.40;54.20
30150;DHT22;16962;48.646;9.026;2023-11-19T11:07:58;15.10;88.00
30150;DHT22;16962;48.646;9.026;2023-11-19T11:10:54;14.90;51.80
30150;DHT22;16962;48.646;9.026;2023-11-19T11:13:44;14.70;41.60
30150;DHT22;16962;48.646;9.026;2023-11-19T11:16:37;14.50;1.00
30150;DHT22;16962;48.646;9.026;2023-11-19T11:19:29;14.20;1.00
30150;DHT22;16962;48.646;9.026;2023-11-19T11:22:17;14.10;41.50
30150;DHT22;16962;48.646;9.026;2023-11-19T11:34:29;13.60;48.60
30150;DHT22;16962;48.646;9.026;2023-11-19T11:37:32;13.60;77.90
30150;DHT22;16962;48.646;9.026;2023-11-19T11:40:22;13.60;99.90
30150;DHT22;16962;48.646;9.026;2023-11-19T11:49:27;13.50;99.90
30150;DHT22;16962;48.646;9.026;2023-11-19T11:52:14;13.60;99.90
30150;DHT22;16962;48.646;9.026;2023-11-19T11:55:05;13.60;99.90
30150;DHT22;16962;48.646;9.026;2023-11-19T11:57:55;13.80;99.90
30150;DHT22;16962;48.646;9.026;2023-11-19T12:00:43;14.00;99.90
30150;DHT22;16962;48.646;9.026;2023-11-19T12:03:31;13.90;99.90
30150;DHT22;16962;48.646;9.026;2023-11-19T12:06:22;14.00;99.90
30150;DHT22;16962;48.646;9.026;2023-11-19T12:09:12;14.30;99.90
30150;DHT22;16962;48.646;9.026;2023-11-19T12:15:04;14.50;1.00
30150;DHT22;16962;48.646;9.026;2023-11-19T12:27:24;14.20;1.00
30150;DHT22;16962;48.646;9.026;2023-11-19T12:30:12;15.40;1.00
30150;DHT22;16962;48.646;9.026;2023-11-19T12:33:00;16.40;99.90
30150;DHT22;16962;48.646;9.026;2023-11-19T12:35:49;15.60;99.90
30150;DHT22;16962;48.646;9.026;2023-11-19T12:38:37;15.00;99.90
30150;DHT22;16962;48.646;9.026;2023-11-19T12:41:24;14.90;99.90
30150;DHT22;16962;48.646;9.026;2023-11-19T12:44:12;14.90;99.90
30150;DHT22;16962;48.646;9.026;2023-11-19T12:49:58;15.60;62.60
30150;DHT22;16962;48.646;9.026;2023-11-19T12:52:58;15.80;6.10
30150;DHT22;16962;48.646;9.026;2023-11-19T12:55:49;16.00;1.00
30150;DHT22;16962;48.646;9.026;2023-11-19T12:58:37;16.50;1.00
30150;DHT22;16962;48.646;9.026;2023-11-19T13:01:26;15.40;1.00
30150;DHT22;16962;48.646;9.026;2023-11-19T13:04:20;15.30;1.00
30150;DHT22;16962;48.646;9.026;2023-11-19T13:07:08;15.80;1.00
30150;DHT22;16962;48.646;9.026;2023-11-19T13:10:05;16.70;1.00
30150;DHT22;16962;48.646;9.026;2023-11-19T13:13:04;16.80;1.00
30150;DHT22;16962;48.646;9.026;2023-11-19T13:15:52;16.60;1.00
30150;DHT22;16962;48.646;9.026;2023-11-19T13:21:24;17.10;99.90
30150;DHT22;16962;48.646;9.026;2023-11-19T13:24:12;18.80;99.90
30150;DHT22;16962;48.646;9.026;2023-11-19T13:27:02;19.10;99.90
30150;DHT22;16962;48.646;9.026;2023-11-19T13:29:49;19.10;99.90
30150;DHT22;16962;48.646;9.026;2023-11-19T13:32:37;18.20;99.90
30150;DHT22;16962;48.646;9.026;2023-11-19T13:35:29;17.30;99.90
30150;DHT22;16962;48.646;9.026;2023-11-19T13:38:17;17.90;99.90
30150;DHT22;16962;48.646;9.026;2023-11-19T13:41:06;16.90;99.90
30150;DHT22;16962;48.646;9.026;2023-11-19T13:43:53;16.00;99.90
30150;DHT22;16962;48.646;9.026;2023-11-19T13:46:44;15.80;99.90
30150;DHT22;16962;48.646;9.026;2023-11-19T13:49:33;15.60;99.90
30150;DHT22;16962;48.646;9.026;2023-11-19T13:52:22;15.10;99.90
30150;DHT22;16962;48.646;9.026;2023-11-19T13:55:10;14.70;99.90
30150;DHT22;16962;48.646;9.026;2023-11-19T13:58:01;15.30;99.90
30150;DHT22;16962;48.646;9.026;2023-11-19T14:00:49;16.00;99.90
30150;DHT22;16962;48.646;9.026;2023-11-19T14:03:37;16.40;99.90
30150;DHT22;16962;48.646;9.026;2023-11-19T14:06:25;17.30;99.90
30150;DHT22;16962;48.646;9.026;2023-11-19T14:09:13;17.80;99.90
30150;DHT22;16962;48.646;9.026;2023-11-19T14:12:00;17.30;99.90
30150;DHT22;16962;48.646;9.026;2023-11-19T14:14:52;17.40;99.90
30150;DHT22;16962;48.646;9.026;2023-11-19T14:17:39;17.20;99.90
30150;DHT22;16962;48.646;9.026;2023-11-19T14:20:29;17.40;99.90
30150;DHT22;16962;48.646;9.026;2023-11-19T14:23:16;17.10;99.90
30150;DHT22;16962;48.646;9.026;2023-11-19T14:26:04;16.90;99.90
30150;DHT22;16962;48.646;9.026;2023-11-19T14:28:58;16.90;99.90
30150;DHT22;16962;48.646;9.026;2023-11-19T14:31:46;16.70;99.90
30150;DHT22;16962;48.646;9.026;2023-11-19T14:34:36;16.40;99.90
30150;DHT22;16962;48.646;9.026;2023-11-19T14:37:26;15.80;99.90
30150;DHT22;16962;48.646;9.026;2023-11-19T14:40:14;14.60;99.90
30150;DHT22;16962;48.646;9.026;2023-11-19T14:43:01;14.10;99.90
30150;DHT22;16962;48.646;9.026;2023-11-19T14:45:49;13.90;99.90
30150;DHT22;16962;48.646;9.026;2023-11-19T14:48:37;13.50;99.90
30150;DHT22;16962;48.646;9.026;2023-11-19T14:51:27;13.40;99.90
30150;DHT22;16962;48.646;9.026;2023-11-19T14:54:17;13.40;99.90
30150;DHT22;16962;48.646;9.026;2023-11-19T14:57:07;13.10;99.90
30150;DHT22;16962;48.646;9.026;2023-11-19T14:59:55;13.20;99.90
30150;DHT22;16962;48.646;9.026;2023-11-19T15:02:43;13.00;99.90
30150;DHT22;16962;48.646;9.026;2023-11-19T15:05:30;12.80;99.90
30150;DHT22;16962;48.646;9.026;2023-11-19T15:08:18;12.60;99.90
30150;DHT22;16962;48.646;9.026;2023-11-19T15:11:08;12.50;99.90
30150;DHT22;16962;48.646;9.026;2023-11-19T15:13:58;12.40;99.90
30150;DHT22;16962;48.646;9.026;2023-11-19T15:16:47;12.30;99.90
30150;DHT22;16962;48.646;9.026;2023-11-19T15:19:38;12.20;99.90
30150;DHT22;16962;48.646;9.026;2023-11-19T15:22:26;12.10;99.90
30150;DHT22;16962;48.646;9.026;2023-11-19T15:25:16;12.00;99.90
30150;DHT22;16962;48.646;9.026;2023-11-19T15:28:03;11.90;1.00
30150;DHT22;16962;48.646;9.026;2023-11-19T15:30:51;11.80;1.00
30150;DHT22;16962;48.646;9.026;2023-11-19T15:33:38;11.80;1.00
30150;DHT22;16962;48.646;9.026;2023-11-19T15:36:28;11.60;1.00
30150;DHT22;16962;48.646;9.026;2023-11-19T15:39:16;11.60;1.00
30150;DHT22;16962;48.646;9.026;2023-11-19T15:42:06;11.50;1.00
30150;DHT22;16962;48.646;9.026;2023-11-19T15:44:53;11.40;1.00
30150;DHT22;16962;48.646;9.026;2023-11-19T15:47:41;11.40;1.00
30150;DHT22;16962;48.646;9.026;2023-11-19T15:50:29;11.30;1.00
30150;DHT22;16962;48.646;9.026;2023-11-19T15:53:17;11.30;1.00
30150;DHT22;16962;48.646;9.026;2023-11-19T15:56:05;11.20;1.00
30150;DHT22;16962;48.646;9.026;2023-11-19T15:58:55;11.20;1.00
30150;DHT22;16962;48.646;9.026;2023-11-19T16:01:46;11.20;1.00
30150;DHT22;16962;48.646;9.026;2023-11-19T16:04:39;11.10;1.00
30150;DHT22;16962;48.646;9.026;2023-11-19T16:07:26;11.00;1.00
30150;DHT22;16962;48.646;9.026;2023-11-19T16:10:18;11.00;1.00
30150;DHT22;16962;48.646;9.026;2023-11-19T16:13:15;10.90;1.00
30150;DHT22;16962;48.646;9.026;2023-11-19T16:16:02;10.70;6.20
30150;DHT22;16962;48.646;9.026;2023-11-19T16:18:52;10.70;52.00
30150;DHT22;16962;48.646;9.026;2023-11-19T16:21:40;10.70;86.70
30150;DHT22;16962;48.646;9.026;2023-11-19T16:24:27;10.80;99.90
30150;DHT22;16962;48.646;9.026;2023-11-19T16:27:15;10.80;99.90
30150;DHT22;16962;48.646;9.026;2023-11-19T16:30:09;10.70;99.90
30150;DHT22;16962;48.646;9.026;2023-11-19T16:33:01;10.70;99.90
30150;DHT22;16962;48.646;9.026;2023-11-19T16:35:58;10.60;99.90
30150;DHT22;16962;48.646;9.026;2023-11-19T16:38:45;10.50;99.90
30150;DHT22;16962;48.646;9.026;2023-11-19T16:41:36;10.50;99.90
30150;DHT22;16962;48.646;9.026;2023-11-19T16:44:29;10.50;1.00
30150;DHT22;16962;48.646;9.026;2023-11-19T16:47:19;10.60;1.00
30150;DHT22;16962;48.646;9.026;2023-11-19T16:50:09;10.50;1.00
30150;DHT22;16962;48.646;9.026;2023-11-19T16:52:59;10.50;1.00
30150;DHT22;16962;48.646;9.026;2023-11-19T16:55:48;10.40;1.00
30150;DHT22;16962;48.646;9.026;2023-11-19T16:58:36;10.40;1.00
30150;DHT22;16962;48.646;9.026;2023-11-19T17:01:29;10.40;1.00
30150;DHT22;16962;48.646;9.026;2023-11-19T17:04:16;10.50;99.90
30150;DHT22;16962;48.646;9.026;2023-11-19T17:07:05;10.50;99.90
30150;DHT22;16962;48.646;9.026;2023-11-19T17:09:52;10.50;99.90
30150;DHT22;16962;48.646;9.026;2023-11-19T17:12:43;10.50;99.90
30150;DHT22;16962;48.646;9.026;2023-11-19T17:15:30;10.60;99.90
30150;DHT22;16962;48.646;9.026;2023-11-19T17:18:19;10.60;99.90
30150;DHT22;16962;48.646;9.026;2023-11-19T17:21:07;10.50;99.90
30150;DHT22;16962;48.646;9.026;2023-11-19T17:23:54;10.50;99.90
30150;DHT22;16962;48.646;9.026;2023-11-19T17:26:42;10.40;99.90
30150;DHT22;16962;48.646;9.026;2023-11-19T17:29:34;10.30;99.90
30150;DHT22;16962;48.646;9.026;2023-11-19T17:32:21;10.20;99.90
30150;DHT22;16962;48.646;9.026;2023-11-19T17:35:09;10.10;99.90
30150;DHT22;16962;48.646;9.026;2023-11-19T17:37:57;10.00;99.90
30150;DHT22;16962;48.646;9.026;2023-11-19T17:40:44;9.80;99.90
30150;DHT22;16962;48.646;9.026;2023-11-19T17:43:34;9.70;99.90
30150;DHT22;16962;48.646;9.026;2023-11-19T17:46:22;9.50;1.00
30150;DHT22;16962;48.646;9.026;2023-11-19T17:49:10;9.40;53.40
30150;DHT22;16962;48.646;9.026;2023-11-19T17:52:02;9.40;99.90
30150;DHT22;16962;48.646;9.026;2023-11-19T17:54:53;9.30;99.90
30150;DHT22;16962;48.646;9.026;2023-11-19T17:57:41;9.20;1.00
30150;DHT22;16962;48.646;9.026;2023-11-19T18:00:32;9.20;92.90
30150;DHT22;16962;48.646;9.026;2023-11-19T18:03:20;9.00;1.00
30150;DHT22;16962;48.646;9.026;2023-11-19T18:06:15;9.00;99.90
30150;DHT22;16962;48.646;9.026;2023-11-19T18:09:05;9.00;99.90
30150;DHT22;16962;48.646;9.026;2023-11-19T18:11:53;8.90;99.90
30150;DHT22;16962;48.646;9.026;2023-11-19T18:14:52;8.90;1.00
30150;DHT22;16962;48.646;9.026;2023-11-19T18:17:41;8.80;1.00
30150;DHT22;16962;48.646;9.026;2023-11-19T18:20:31;8.60;1.00
30150;DHT22;16962;48.646;9.026;2023-11-19T18:23:18;8.70;99.90
30150;DHT22;16962;48.646;9.026;2023-11-19T18:26:06;8.90;99.90
30150;DHT22;16962;48.646;9.026;2023-11-19T18:28:57;8.90;99.90
30150;DHT22;16962;48.646;9.026;2023-11-19T18:31:49;8.90;99.90
30150;DHT22;16962;48.646;9.026;2023-11-19T18:34:40;8.90;1.00
30150;DHT22;16962;48.646;9.026;2023-11-19T18:37:28;8.80;1.00
30150;DHT22;16962;48.646;9.026;2023-11-19T18:40:21;8.70;99.90
30150;DHT22;16962;48.646;9.026;2023-11-19T18:43:29;8.80;1.00
30150;DHT22;16962;48.646;9.026;2023-11-19T18:46:52;8.90;1.00
30150;DHT22;16962;48.646;9.026;2023-11-19T18:49:51;8.90;99.90
30150;DHT22;16962;48.646;9.026;2023-11-19T18:52:54;9.00;1.00
30150;DHT22;16962;48.646;9.026;2023-11-19T18:56:10;9.00;1.00
30150;DHT22;16962;48.646;9.026;2023-11-19T18:59:10;9.00;99.90
30150;DHT22;16962;48.646;9.026;2023-11-19T19:02:15;9.10;99.90
30150;DHT22;16962;48.646;9.026;2023-11-19T19:05:25;9.20;99.90
30150;DHT22;16962;48.646;9.026;2023-11-19T19:08:26;9.30;99.90
30150;DHT22;16962;48.646;9.026;2023-11-19T19:15:56;9.80;98.60
30150;DHT22;16962;48.646;9.026;2023-11-19T19:18:47;9.80;99.90
30150;DHT22;16962;48.646;9.026;2023-11-19T19:21:54;9.80;99.90
30150;DHT22;16962;48.646;9.026;2023-11-19T19:25:08;9.80;15.20
30150;DHT22;16962;48.646;9.026;2023-11-19T19:28:21;9.90;99.90
30150;DHT22;16962;48.646;9.026;2023-11-19T19:31:59;10.10;66.10